الصفحة الرئيسية
METAR-TAF:

METAR-TAF

مطار :

Pemba, موزمبيق

دائرة عرض: 12-59S, خط طول: 040-32E, ارتفاع: 101 متر

مراقبة الطقس الحالي

تاريخ ووقت الإصدار 14 دقيقة قبل الساعة 18:00UTC
ريح 6 عقدة من الجنوب الشرقي
درجة الحرارة 28°درجة مئوية
الرطوبة 74%
ضغط 1012 hPa
الرؤية 10 كم أو أكثر
غيوم قليلة على ارتفاع 2000 قدم

METAR: FQPB 011800Z 14006KT 9999 FEW020 28/23 Q1012

زمن: 20:14 (18:14 UTC)

توقعات

تاريخ ووقت الإصدار 2ساعات و 14 دقيقة قبل الساعة 16:00UTC
التوقعات صالحة من01 الساعة 18 UTC إلى 02 الساعة 18 UTC
ريح 8 عقدة من الجنوب/الجنوب الغربي
الرؤية 10 كم أو أكثر
غيوم متفرقة على ارتفاع 2000 قدم
أصبح
من 02 الساعة 12 UTC إلى 02 الساعة 14 UTC
ريح 12 عقدة من الجنوب/الجنوب الشرقي

TAF: FQPB 011600Z 0118/0218 21008KT 9999 SCT020 TX33/0213Z TN23/0203Z BECMG 0212/0214 15012KT

أرصاد الطقس والتوقعات من أكثر من 4000 مطار (تقارير الطقس للمطار METAR والتنبؤ بالطقس بالمطارTAF).

المحطات المتاحة هي النقط الصفراء والحمراء على الخريطة.

حرك المؤشر فوق النقطة لمعرفة اسم المحطة.

ثم انقر لمعرفة أرصاد وتوقعات الطقس.

لتغيير الخارطة: اضغط على الأزرار الخضراء مع رمز الصليب الأسود للتكبير. على الزر الأخضر مع شرطة للتصغير، أو على الأسهم الخضراء للخرائط المجاورة.


METAR-TAF: